sensor_id;sensor_type;location;lat;lon;timestamp;P1;durP1;ratioP1;P2;durP2;ratioP2
3099;SDS011;1560;52.746;13.474;2022-11-14T00:00:13;74.87;;;36.83;;
3099;SDS011;1560;52.746;13.474;2022-11-14T00:02:43;96.35;;;41.02;;
3099;SDS011;1560;52.746;13.474;2022-11-14T00:07:48;80.72;;;36.55;;
3099;SDS011;1560;52.746;13.474;2022-11-14T00:10:17;75.55;;;37.73;;
3099;SDS011;1560;52.746;13.474;2022-11-14T00:12:55;81.75;;;39.10;;
3099;SDS011;1560;52.746;13.474;2022-11-14T00:15:23;82.65;;;36.45;;
3099;SDS011;1560;52.746;13.474;2022-11-14T00:17:52;77.03;;;39.13;;
3099;SDS011;1560;52.746;13.474;2022-11-14T00:22:58;76.37;;;36.77;;
3099;SDS011;1560;52.746;13.474;2022-11-14T00:25:27;80.05;;;39.38;;
3099;SDS011;1560;52.746;13.474;2022-11-14T00:28:04;79.17;;;38.15;;
3099;SDS011;1560;52.746;13.474;2022-11-14T00:30:33;84.00;;;38.80;;
3099;SDS011;1560;52.746;13.474;2022-11-14T00:33:04;72.35;;;37.85;;
3099;SDS011;1560;52.746;13.474;2022-11-14T00:35:33;78.55;;;40.23;;
3099;SDS011;1560;52.746;13.474;2022-11-14T00:38:10;95.55;;;41.98;;
3099;SDS011;1560;52.746;13.474;2022-11-14T00:40:41;86.72;;;40.65;;
3099;SDS011;1560;52.746;13.474;2022-11-14T00:45:46;93.40;;;44.08;;
3099;SDS011;1560;52.746;13.474;2022-11-14T00:48:15;88.97;;;42.05;;
3099;SDS011;1560;52.746;13.474;2022-11-14T00:50:44;86.87;;;43.95;;
3099;SDS011;1560;52.746;13.474;2022-11-14T00:53:13;92.55;;;41.85;;
3099;SDS011;1560;52.746;13.474;2022-11-14T00:55:42;84.90;;;38.55;;
3099;SDS011;1560;52.746;13.474;2022-11-14T00:58:11;90.62;;;40.15;;
3099;SDS011;1560;52.746;13.474;2022-11-14T01:00:39;86.30;;;40.08;;
3099;SDS011;1560;52.746;13.474;2022-11-14T01:03:08;88.22;;;42.27;;
3099;SDS011;1560;52.746;13.474;2022-11-14T01:05:40;92.33;;;42.17;;
3099;SDS011;1560;52.746;13.474;2022-11-14T01:08:09;87.50;;;41.68;;
3099;SDS011;1560;52.746;13.474;2022-11-14T01:10:39;104.90;;;45.12;;
3099;SDS011;1560;52.746;13.474;2022-11-14T01:15:46;94.30;;;42.00;;
3099;SDS011;1560;52.746;13.474;2022-11-14T01:18:17;93.22;;;43.63;;
3099;SDS011;1560;52.746;13.474;2022-11-14T01:20:47;98.95;;;43.33;;
3099;SDS011;1560;52.746;13.474;2022-11-14T01:23:16;103.75;;;41.73;;
3099;SDS011;1560;52.746;13.474;2022-11-14T01:25:45;106.15;;;43.75;;
3099;SDS011;1560;52.746;13.474;2022-11-14T01:28:14;95.42;;;41.60;;
3099;SDS011;1560;52.746;13.474;2022-11-14T01:30:52;91.60;;;44.45;;
3099;SDS011;1560;52.746;13.474;2022-11-14T01:35:58;90.85;;;41.92;;
3099;SDS011;1560;52.746;13.474;2022-11-14T01:38:28;98.92;;;42.65;;
3099;SDS011;1560;52.746;13.474;2022-11-14T01:40:58;98.82;;;43.73;;
3099;SDS011;1560;52.746;13.474;2022-11-14T01:43:36;95.12;;;43.40;;
3099;SDS011;1560;52.746;13.474;2022-11-14T01:46:06;96.42;;;43.30;;
3099;SDS011;1560;52.746;13.474;2022-11-14T01:48:40;85.65;;;40.15;;
3099;SDS011;1560;52.746;13.474;2022-11-14T01:51:14;110.42;;;43.52;;
3099;SDS011;1560;52.746;13.474;2022-11-14T01:56:23;95.20;;;41.65;;
3099;SDS011;1560;52.746;13.474;2022-11-14T01:58:55;94.95;;;42.08;;
3099;SDS011;1560;52.746;13.474;2022-11-14T02:01:28;109.55;;;47.03;;
3099;SDS011;1560;52.746;13.474;2022-11-14T02:04:00;100.90;;;44.42;;
3099;SDS011;1560;52.746;13.474;2022-11-14T02:06:32;102.38;;;43.20;;
3099;SDS011;1560;52.746;13.474;2022-11-14T02:09:09;109.42;;;44.58;;
3099;SDS011;1560;52.746;13.474;2022-11-14T02:11:39;98.85;;;43.73;;
3099;SDS011;1560;52.746;13.474;2022-11-14T02:14:10;104.25;;;43.40;;
3099;SDS011;1560;52.746;13.474;2022-11-14T02:16:40;110.57;;;44.95;;
3099;SDS011;1560;52.746;13.474;2022-11-14T02:19:09;102.00;;;41.15;;
3099;SDS011;1560;52.746;13.474;2022-11-14T02:21:39;106.27;;;44.98;;
3099;SDS011;1560;52.746;13.474;2022-11-14T02:24:09;108.75;;;45.67;;
3099;SDS011;1560;52.746;13.474;2022-11-14T02:26:38;102.35;;;44.40;;
3099;SDS011;1560;52.746;13.474;2022-11-14T02:29:09;115.60;;;45.73;;
3099;SDS011;1560;52.746;13.474;2022-11-14T02:31:38;106.10;;;44.95;;
3099;SDS011;1560;52.746;13.474;2022-11-14T02:34:07;105.12;;;43.95;;
3099;SDS011;1560;52.746;13.474;2022-11-14T02:36:36;115.17;;;44.58;;
3099;SDS011;1560;52.746;13.474;2022-11-14T02:39:14;102.15;;;43.05;;
3099;SDS011;1560;52.746;13.474;2022-11-14T02:41:42;109.78;;;45.12;;
3099;SDS011;1560;52.746;13.474;2022-11-14T02:44:11;116.55;;;47.85;;
3099;SDS011;1560;52.746;13.474;2022-11-14T02:46:40;101.97;;;45.50;;
3099;SDS011;1560;52.746;13.474;2022-11-14T02:49:09;113.80;;;48.45;;
3099;SDS011;1560;52.746;13.474;2022-11-14T02:54:14;113.47;;;47.00;;
3099;SDS011;1560;52.746;13.474;2022-11-14T02:56:43;108.85;;;45.67;;
3099;SDS011;1560;52.746;13.474;2022-11-14T02:59:12;109.30;;;46.33;;
3099;SDS011;1560;52.746;13.474;2022-11-14T03:01:41;108.40;;;46.55;;
3099;SDS011;1560;52.746;13.474;2022-11-14T03:04:10;116.00;;;51.90;;
3099;SDS011;1560;52.746;13.474;2022-11-14T03:06:39;103.60;;;44.48;;
3099;SDS011;1560;52.746;13.474;2022-11-14T03:11:44;111.42;;;47.55;;
3099;SDS011;1560;52.746;13.474;2022-11-14T03:16:49;119.60;;;49.88;;
3099;SDS011;1560;52.746;13.474;2022-11-14T03:19:18;143.22;;;56.63;;
3099;SDS011;1560;52.746;13.474;2022-11-14T03:21:47;118.87;;;46.42;;
3099;SDS011;1560;52.746;13.474;2022-11-14T03:24:16;107.15;;;44.55;;
3099;SDS011;1560;52.746;13.474;2022-11-14T03:26:45;109.17;;;45.20;;
3099;SDS011;1560;52.746;13.474;2022-11-14T03:29:14;124.62;;;47.40;;
3099;SDS011;1560;52.746;13.474;2022-11-14T03:31:43;106.60;;;43.35;;
3099;SDS011;1560;52.746;13.474;2022-11-14T03:36:48;103.95;;;43.45;;
3099;SDS011;1560;52.746;13.474;2022-11-14T03:41:53;105.50;;;45.67;;
3099;SDS011;1560;52.746;13.474;2022-11-14T03:44:22;105.67;;;49.15;;
3099;SDS011;1560;52.746;13.474;2022-11-14T03:46:52;123.13;;;49.60;;
3099;SDS011;1560;52.746;13.474;2022-11-14T03:49:21;122.25;;;52.33;;
3099;SDS011;1560;52.746;13.474;2022-11-14T03:51:50;118.55;;;49.93;;
3099;SDS011;1560;52.746;13.474;2022-11-14T03:56:55;110.60;;;47.93;;
3099;SDS011;1560;52.746;13.474;2022-11-14T03:59:24;126.85;;;51.37;;
3099;SDS011;1560;52.746;13.474;2022-11-14T04:02:08;122.67;;;52.00;;
3099;SDS011;1560;52.746;13.474;2022-11-14T04:04:37;110.17;;;49.03;;
3099;SDS011;1560;52.746;13.474;2022-11-14T04:07:05;115.95;;;48.78;;
3099;SDS011;1560;52.746;13.474;2022-11-14T04:09:34;123.25;;;50.50;;
3099;SDS011;1560;52.746;13.474;2022-11-14T04:12:03;119.05;;;50.90;;
3099;SDS011;1560;52.746;13.474;2022-11-14T04:14:35;119.28;;;50.75;;
3099;SDS011;1560;52.746;13.474;2022-11-14T04:19:40;128.68;;;52.00;;
3099;SDS011;1560;52.746;13.474;2022-11-14T04:22:09;125.82;;;51.25;;
3099;SDS011;1560;52.746;13.474;2022-11-14T04:27:14;117.70;;;49.73;;
3099;SDS011;1560;52.746;13.474;2022-11-14T04:29:43;120.10;;;46.30;;
3099;SDS011;1560;52.746;13.474;2022-11-14T04:32:11;117.20;;;49.90;;
3099;SDS011;1560;52.746;13.474;2022-11-14T04:34:40;129.87;;;49.48;;
3099;SDS011;1560;52.746;13.474;2022-11-14T04:39:45;128.78;;;50.08;;
3099;SDS011;1560;52.746;13.474;2022-11-14T04:44:52;133.40;;;49.75;;
3099;SDS011;1560;52.746;13.474;2022-11-14T04:47:21;138.35;;;51.45;;
3099;SDS011;1560;52.746;13.474;2022-11-14T04:49:58;133.45;;;52.23;;
3099;SDS011;1560;52.746;13.474;2022-11-14T04:55:04;128.12;;;48.45;;
3099;SDS011;1560;52.746;13.474;2022-11-14T04:57:34;126.95;;;50.08;;
3099;SDS011;1560;52.746;13.474;2022-11-14T05:00:13;123.62;;;49.18;;
3099;SDS011;1560;52.746;13.474;2022-11-14T05:05:19;120.95;;;48.50;;
3099;SDS011;1560;52.746;13.474;2022-11-14T05:07:47;132.50;;;50.45;;
3099;SDS011;1560;52.746;13.474;2022-11-14T05:10:17;124.87;;;45.28;;
3099;SDS011;1560;52.746;13.474;2022-11-14T05:12:54;119.82;;;44.95;;
3099;SDS011;1560;52.746;13.474;2022-11-14T05:18:00;126.60;;;44.88;;
3099;SDS011;1560;52.746;13.474;2022-11-14T05:20:29;118.90;;;47.98;;
3099;SDS011;1560;52.746;13.474;2022-11-14T05:23:10;131.20;;;50.12;;
3099;SDS011;1560;52.746;13.474;2022-11-14T05:25:42;122.37;;;47.60;;
3099;SDS011;1560;52.746;13.474;2022-11-14T05:28:11;118.62;;;44.65;;
3099;SDS011;1560;52.746;13.474;2022-11-14T05:30:40;125.70;;;46.33;;
3099;SDS011;1560;52.746;13.474;2022-11-14T05:33:10;115.50;;;47.05;;
3099;SDS011;1560;52.746;13.474;2022-11-14T05:35:38;121.72;;;46.58;;
3099;SDS011;1560;52.746;13.474;2022-11-14T05:38:07;121.02;;;47.05;;
3099;SDS011;1560;52.746;13.474;2022-11-14T05:40:36;117.95;;;47.73;;
3099;SDS011;1560;52.746;13.474;2022-11-14T05:43:05;120.90;;;46.92;;
3099;SDS011;1560;52.746;13.474;2022-11-14T05:45:34;124.75;;;46.85;;
3099;SDS011;1560;52.746;13.474;2022-11-14T05:48:03;118.55;;;48.35;;
3099;SDS011;1560;52.746;13.474;2022-11-14T05:50:32;122.95;;;48.95;;
3099;SDS011;1560;52.746;13.474;2022-11-14T05:53:01;128.80;;;50.48;;
3099;SDS011;1560;52.746;13.474;2022-11-14T05:55:30;133.12;;;48.13;;
3099;SDS011;1560;52.746;13.474;2022-11-14T05:57:59;130.45;;;48.83;;
3099;SDS011;1560;52.746;13.474;2022-11-14T06:00:28;118.90;;;46.98;;
3099;SDS011;1560;52.746;13.474;2022-11-14T06:02:56;123.07;;;47.65;;
3099;SDS011;1560;52.746;13.474;2022-11-14T06:05:34;124.38;;;47.83;;
3099;SDS011;1560;52.746;13.474;2022-11-14T06:08:04;135.35;;;48.00;;
3099;SDS011;1560;52.746;13.474;2022-11-14T06:10:33;112.88;;;45.00;;
3099;SDS011;1560;52.746;13.474;2022-11-14T06:13:02;132.85;;;46.85;;
3099;SDS011;1560;52.746;13.474;2022-11-14T06:15:31;133.20;;;47.35;;
3099;SDS011;1560;52.746;13.474;2022-11-14T06:18:14;147.95;;;48.23;;
3099;SDS011;1560;52.746;13.474;2022-11-14T06:20:43;133.47;;;50.03;;
3099;SDS011;1560;52.746;13.474;2022-11-14T06:23:12;122.47;;;47.40;;
3099;SDS011;1560;52.746;13.474;2022-11-14T06:25:41;126.38;;;46.83;;
3099;SDS011;1560;52.746;13.474;2022-11-14T06:28:18;117.42;;;48.02;;
3099;SDS011;1560;52.746;13.474;2022-11-14T06:30:47;128.57;;;47.45;;
3099;SDS011;1560;52.746;13.474;2022-11-14T06:33:16;119.00;;;47.88;;
3099;SDS011;1560;52.746;13.474;2022-11-14T06:35:45;119.57;;;47.40;;
3099;SDS011;1560;52.746;13.474;2022-11-14T06:38:14;123.40;;;47.08;;
3099;SDS011;1560;52.746;13.474;2022-11-14T06:40:51;125.92;;;45.23;;
3099;SDS011;1560;52.746;13.474;2022-11-14T06:43:21;124.07;;;44.63;;
3099;SDS011;1560;52.746;13.474;2022-11-14T06:45:52;129.05;;;48.60;;
3099;SDS011;1560;52.746;13.474;2022-11-14T06:50:58;121.90;;;44.73;;
3099;SDS011;1560;52.746;13.474;2022-11-14T06:53:28;108.32;;;44.77;;
3099;SDS011;1560;52.746;13.474;2022-11-14T06:58:35;125.75;;;47.33;;
3099;SDS011;1560;52.746;13.474;2022-11-14T07:01:06;115.37;;;44.85;;
3099;SDS011;1560;52.746;13.474;2022-11-14T07:03:36;119.72;;;46.63;;
3099;SDS011;1560;52.746;13.474;2022-11-14T07:06:05;110.05;;;44.20;;
3099;SDS011;1560;52.746;13.474;2022-11-14T07:11:13;106.15;;;43.63;;
3099;SDS011;1560;52.746;13.474;2022-11-14T07:13:48;121.67;;;43.95;;
3099;SDS011;1560;52.746;13.474;2022-11-14T07:16:18;111.42;;;46.60;;
3099;SDS011;1560;52.746;13.474;2022-11-14T07:21:25;120.17;;;44.10;;
3099;SDS011;1560;52.746;13.474;2022-11-14T07:23:55;108.92;;;41.15;;
3099;SDS011;1560;52.746;13.474;2022-11-14T07:26:24;110.28;;;44.03;;
3099;SDS011;1560;52.746;13.474;2022-11-14T07:28:53;109.80;;;42.20;;
3099;SDS011;1560;52.746;13.474;2022-11-14T07:31:22;105.63;;;42.80;;
3099;SDS011;1560;52.746;13.474;2022-11-14T07:33:59;95.55;;;40.73;;
3099;SDS011;1560;52.746;13.474;2022-11-14T07:36:28;97.47;;;39.65;;
3099;SDS011;1560;52.746;13.474;2022-11-14T07:38:57;107.27;;;42.38;;
3099;SDS011;1560;52.746;13.474;2022-11-14T07:41:26;96.12;;;39.98;;
3099;SDS011;1560;52.746;13.474;2022-11-14T07:43:54;96.32;;;42.40;;
3099;SDS011;1560;52.746;13.474;2022-11-14T07:46:23;107.35;;;42.13;;
3099;SDS011;1560;52.746;13.474;2022-11-14T07:48:52;91.40;;;39.08;;
3099;SDS011;1560;52.746;13.474;2022-11-14T07:51:21;104.23;;;41.20;;
3099;SDS011;1560;52.746;13.474;2022-11-14T07:53:51;105.00;;;40.85;;
3099;SDS011;1560;52.746;13.474;2022-11-14T07:56:19;111.35;;;43.55;;
3099;SDS011;1560;52.746;13.474;2022-11-14T07:58:49;106.20;;;42.35;;
3099;SDS011;1560;52.746;13.474;2022-11-14T08:03:54;89.17;;;39.33;;
3099;SDS011;1560;52.746;13.474;2022-11-14T08:06:23;105.83;;;44.23;;
3099;SDS011;1560;52.746;13.474;2022-11-14T08:11:28;111.88;;;44.18;;
3099;SDS011;1560;52.746;13.474;2022-11-14T08:16:52;102.02;;;42.30;;
3099;SDS011;1560;52.746;13.474;2022-11-14T08:19:21;102.10;;;40.12;;
3099;SDS011;1560;52.746;13.474;2022-11-14T08:21:50;95.10;;;38.70;;
3099;SDS011;1560;52.746;13.474;2022-11-14T08:24:18;91.75;;;39.33;;
3099;SDS011;1560;52.746;13.474;2022-11-14T08:29:23;85.07;;;36.28;;
3099;SDS011;1560;52.746;13.474;2022-11-14T08:31:52;94.65;;;38.67;;
3099;SDS011;1560;52.746;13.474;2022-11-14T08:34:21;90.95;;;38.70;;
3099;SDS011;1560;52.746;13.474;2022-11-14T08:36:51;93.47;;;41.23;;
3099;SDS011;1560;52.746;13.474;2022-11-14T08:39:19;81.22;;;37.05;;
3099;SDS011;1560;52.746;13.474;2022-11-14T08:41:48;94.75;;;39.42;;
3099;SDS011;1560;52.746;13.474;2022-11-14T08:44:17;92.90;;;38.08;;
3099;SDS011;1560;52.746;13.474;2022-11-14T08:46:54;94.07;;;36.73;;
3099;SDS011;1560;52.746;13.474;2022-11-14T08:49:25;87.75;;;38.25;;
3099;SDS011;1560;52.746;13.474;2022-11-14T08:52:03;93.25;;;39.58;;
3099;SDS011;1560;52.746;13.474;2022-11-14T08:54:32;96.10;;;35.55;;
3099;SDS011;1560;52.746;13.474;2022-11-14T08:57:01;97.50;;;39.83;;
3099;SDS011;1560;52.746;13.474;2022-11-14T09:02:08;93.72;;;38.63;;
3099;SDS011;1560;52.746;13.474;2022-11-14T09:04:37;107.92;;;39.60;;
3099;SDS011;1560;52.746;13.474;2022-11-14T09:07:07;95.10;;;38.08;;
3099;SDS011;1560;52.746;13.474;2022-11-14T09:12:12;85.28;;;34.98;;
3099;SDS011;1560;52.746;13.474;2022-11-14T09:14:42;102.30;;;38.20;;
3099;SDS011;1560;52.746;13.474;2022-11-14T09:17:11;84.55;;;36.75;;
3099;SDS011;1560;52.746;13.474;2022-11-14T09:19:40;90.85;;;38.40;;
3099;SDS011;1560;52.746;13.474;2022-11-14T09:22:08;97.82;;;36.65;;
3099;SDS011;1560;52.746;13.474;2022-11-14T09:24:37;92.42;;;37.38;;
3099;SDS011;1560;52.746;13.474;2022-11-14T09:27:06;84.87;;;35.10;;
3099;SDS011;1560;52.746;13.474;2022-11-14T09:29:43;95.40;;;37.33;;
3099;SDS011;1560;52.746;13.474;2022-11-14T09:32:12;76.95;;;35.03;;
3099;SDS011;1560;52.746;13.474;2022-11-14T09:34:41;98.00;;;39.03;;
3099;SDS011;1560;52.746;13.474;2022-11-14T09:37:11;90.55;;;38.90;;
3099;SDS011;1560;52.746;13.474;2022-11-14T09:39:39;92.42;;;37.33;;
3099;SDS011;1560;52.746;13.474;2022-11-14T09:44:53;101.10;;;36.53;;
3099;SDS011;1560;52.746;13.474;2022-11-14T09:47:25;86.57;;;36.48;;
3099;SDS011;1560;52.746;13.474;2022-11-14T09:49:57;80.87;;;33.67;;
3099;SDS011;1560;52.746;13.474;2022-11-14T09:55:09;77.65;;;34.83;;
3099;SDS011;1560;52.746;13.474;2022-11-14T09:57:40;76.15;;;34.55;;
3099;SDS011;1560;52.746;13.474;2022-11-14T10:00:15;82.72;;;33.15;;
3099;SDS011;1560;52.746;13.474;2022-11-14T10:02:52;74.20;;;33.38;;
3099;SDS011;1560;52.746;13.474;2022-11-14T10:05:27;71.77;;;30.92;;
3099;SDS011;1560;52.746;13.474;2022-11-14T10:08:12;74.77;;;32.55;;
3099;SDS011;1560;52.746;13.474;2022-11-14T10:10:53;74.00;;;33.80;;
3099;SDS011;1560;52.746;13.474;2022-11-14T10:13:37;73.95;;;35.40;;
3099;SDS011;1560;52.746;13.474;2022-11-14T10:16:22;74.50;;;33.73;;
3099;SDS011;1560;52.746;13.474;2022-11-14T10:18:57;73.70;;;31.65;;
3099;SDS011;1560;52.746;13.474;2022-11-14T10:21:38;68.28;;;35.10;;
3099;SDS011;1560;52.746;13.474;2022-11-14T10:27:00;66.70;;;31.45;;
3099;SDS011;1560;52.746;13.474;2022-11-14T10:29:37;68.97;;;32.75;;
3099;SDS011;1560;52.746;13.474;2022-11-14T10:35:13;78.45;;;34.60;;
3099;SDS011;1560;52.746;13.474;2022-11-14T10:37:45;75.45;;;33.02;;
3099;SDS011;1560;52.746;13.474;2022-11-14T10:40:18;76.28;;;34.27;;
3099;SDS011;1560;52.746;13.474;2022-11-14T10:42:59;55.67;;;30.55;;
3099;SDS011;1560;52.746;13.474;2022-11-14T10:45:32;67.17;;;31.85;;
3099;SDS011;1560;52.746;13.474;2022-11-14T10:48:07;58.05;;;30.72;;
3099;SDS011;1560;52.746;13.474;2022-11-14T10:53:17;62.78;;;29.70;;
3099;SDS011;1560;52.746;13.474;2022-11-14T10:55:49;71.90;;;32.88;;
3099;SDS011;1560;52.746;13.474;2022-11-14T10:58:19;65.60;;;30.85;;
3099;SDS011;1560;52.746;13.474;2022-11-14T11:00:49;63.92;;;30.68;;
3099;SDS011;1560;52.746;13.474;2022-11-14T11:05:54;63.02;;;32.35;;
3099;SDS011;1560;52.746;13.474;2022-11-14T11:08:23;63.65;;;31.42;;
3099;SDS011;1560;52.746;13.474;2022-11-14T11:11:11;60.05;;;29.18;;
3099;SDS011;1560;52.746;13.474;2022-11-14T11:13:56;58.45;;;28.47;;
3099;SDS011;1560;52.746;13.474;2022-11-14T11:16:27;68.00;;;29.87;;
3099;SDS011;1560;52.746;13.474;2022-11-14T11:19:12;61.25;;;30.72;;
3099;SDS011;1560;52.746;13.474;2022-11-14T11:21:46;65.42;;;28.95;;
3099;SDS011;1560;52.746;13.474;2022-11-14T11:24:32;66.80;;;31.77;;
3099;SDS011;1560;52.746;13.474;2022-11-14T11:30:17;58.80;;;30.00;;
3099;SDS011;1560;52.746;13.474;2022-11-14T11:32:41;60.15;;;30.15;;
3099;SDS011;1560;52.746;13.474;2022-11-14T11:35:11;62.90;;;28.73;;
3099;SDS011;1560;52.746;13.474;2022-11-14T11:37:40;50.90;;;27.07;;
3099;SDS011;1560;52.746;13.474;2022-11-14T11:40:20;58.25;;;28.75;;
3099;SDS011;1560;52.746;13.474;2022-11-14T11:42:55;61.30;;;27.82;;
3099;SDS011;1560;52.746;13.474;2022-11-14T11:45:25;61.75;;;28.55;;
3099;SDS011;1560;52.746;13.474;2022-11-14T11:48:07;53.80;;;27.15;;
3099;SDS011;1560;52.746;13.474;2022-11-14T11:50:44;49.98;;;25.95;;
3099;SDS011;1560;52.746;13.474;2022-11-14T11:53:15;51.95;;;27.52;;
3099;SDS011;1560;52.746;13.474;2022-11-14T11:55:47;55.95;;;28.85;;
3099;SDS011;1560;52.746;13.474;2022-11-14T11:58:19;52.38;;;28.83;;
3099;SDS011;1560;52.746;13.474;2022-11-14T12:00:51;55.15;;;28.17;;
3099;SDS011;1560;52.746;13.474;2022-11-14T12:03:30;49.33;;;26.27;;
3099;SDS011;1560;52.746;13.474;2022-11-14T12:06:02;50.88;;;25.05;;
3099;SDS011;1560;52.746;13.474;2022-11-14T12:08:36;48.33;;;26.00;;
3099;SDS011;1560;52.746;13.474;2022-11-14T12:11:08;47.00;;;25.80;;
3099;SDS011;1560;52.746;13.474;2022-11-14T12:13:47;48.85;;;27.27;;
3099;SDS011;1560;52.746;13.474;2022-11-14T12:16:34;50.35;;;28.57;;
3099;SDS011;1560;52.746;13.474;2022-11-14T12:19:08;51.77;;;26.90;;
3099;SDS011;1560;52.746;13.474;2022-11-14T12:21:47;56.48;;;27.55;;
3099;SDS011;1560;52.746;13.474;2022-11-14T12:24:25;45.00;;;26.37;;
3099;SDS011;1560;52.746;13.474;2022-11-14T12:30:18;52.43;;;27.60;;
3099;SDS011;1560;52.746;13.474;2022-11-14T12:32:49;46.48;;;26.35;;
3099;SDS011;1560;52.746;13.474;2022-11-14T12:35:20;48.90;;;27.32;;
3099;SDS011;1560;52.746;13.474;2022-11-14T12:37:52;41.30;;;23.45;;
3099;SDS011;1560;52.746;13.474;2022-11-14T12:40:25;45.23;;;27.00;;
3099;SDS011;1560;52.746;13.474;2022-11-14T12:42:56;48.25;;;27.35;;
3099;SDS011;1560;52.746;13.474;2022-11-14T12:51:05;44.25;;;25.08;;
3099;SDS011;1560;52.746;13.474;2022-11-14T12:53:54;48.75;;;26.48;;
3099;SDS011;1560;52.746;13.474;2022-11-14T12:56:39;46.18;;;23.18;;
3099;SDS011;1560;52.746;13.474;2022-11-14T12:59:23;43.87;;;23.73;;
3099;SDS011;1560;52.746;13.474;2022-11-14T13:02:07;50.85;;;24.98;;
3099;SDS011;1560;52.746;13.474;2022-11-14T13:05:08;40.78;;;22.73;;
3099;SDS011;1560;52.746;13.474;2022-11-14T13:07:44;53.15;;;26.62;;
3099;SDS011;1560;52.746;13.474;2022-11-14T13:12:56;45.65;;;26.10;;
3099;SDS011;1560;52.746;13.474;2022-11-14T13:15:46;39.55;;;24.25;;
3099;SDS011;1560;52.746;13.474;2022-11-14T13:18:35;44.27;;;24.50;;
3099;SDS011;1560;52.746;13.474;2022-11-14T13:21:23;45.38;;;25.50;;
3099;SDS011;1560;52.746;13.474;2022-11-14T13:26:49;45.43;;;24.15;;
3099;SDS011;1560;52.746;13.474;2022-11-14T13:35:25;39.67;;;23.73;;
3099;SDS011;1560;52.746;13.474;2022-11-14T13:40:53;44.65;;;27.62;;
3099;SDS011;1560;52.746;13.474;2022-11-14T13:43:28;49.90;;;26.33;;
3099;SDS011;1560;52.746;13.474;2022-11-14T13:48:43;44.65;;;25.02;;
3099;SDS011;1560;52.746;13.474;2022-11-14T13:51:29;43.92;;;23.67;;
3099;SDS011;1560;52.746;13.474;2022-11-14T13:53:59;41.45;;;22.45;;
3099;SDS011;1560;52.746;13.474;2022-11-14T13:56:31;42.75;;;25.20;;
3099;SDS011;1560;52.746;13.474;2022-11-14T13:59:18;43.90;;;24.25;;
3099;SDS011;1560;52.746;13.474;2022-11-14T14:02:03;40.28;;;23.65;;
3099;SDS011;1560;52.746;13.474;2022-11-14T14:04:43;47.88;;;24.12;;
3099;SDS011;1560;52.746;13.474;2022-11-14T14:07:22;46.75;;;26.27;;
3099;SDS011;1560;52.746;13.474;2022-11-14T14:09:56;42.38;;;24.72;;
3099;SDS011;1560;52.746;13.474;2022-11-14T14:15:11;45.90;;;24.30;;
3099;SDS011;1560;52.746;13.474;2022-11-14T14:17:54;42.40;;;24.60;;
3099;SDS011;1560;52.746;13.474;2022-11-14T14:20:30;43.65;;;22.58;;
3099;SDS011;1560;52.746;13.474;2022-11-14T14:23:07;53.98;;;25.85;;
3099;SDS011;1560;52.746;13.474;2022-11-14T14:25:44;49.30;;;26.90;;
3099;SDS011;1560;52.746;13.474;2022-11-14T14:28:17;44.73;;;26.40;;
3099;SDS011;1560;52.746;13.474;2022-11-14T14:31:03;49.73;;;25.12;;
3099;SDS011;1560;52.746;13.474;2022-11-14T14:33:41;44.60;;;26.80;;
3099;SDS011;1560;52.746;13.474;2022-11-14T14:36:18;45.48;;;24.40;;
3099;SDS011;1560;52.746;13.474;2022-11-14T14:41:25;53.90;;;28.15;;
3099;SDS011;1560;52.746;13.474;2022-11-14T14:43:58;46.37;;;24.05;;
3099;SDS011;1560;52.746;13.474;2022-11-14T14:49:04;41.53;;;23.15;;
3099;SDS011;1560;52.746;13.474;2022-11-14T14:51:34;37.10;;;23.45;;
3099;SDS011;1560;52.746;13.474;2022-11-14T14:54:04;43.48;;;25.85;;
3099;SDS011;1560;52.746;13.474;2022-11-14T14:59:16;47.23;;;27.67;;
3099;SDS011;1560;52.746;13.474;2022-11-14T15:01:47;38.92;;;22.70;;
3099;SDS011;1560;52.746;13.474;2022-11-14T15:04:16;43.05;;;25.52;;
3099;SDS011;1560;52.746;13.474;2022-11-14T15:06:47;43.33;;;23.98;;
3099;SDS011;1560;52.746;13.474;2022-11-14T15:11:55;38.40;;;21.62;;
3099;SDS011;1560;52.746;13.474;2022-11-14T15:14:26;47.67;;;24.10;;
3099;SDS011;1560;52.746;13.474;2022-11-14T15:16:57;34.15;;;23.35;;
3099;SDS011;1560;52.746;13.474;2022-11-14T15:19:27;38.15;;;23.90;;
3099;SDS011;1560;52.746;13.474;2022-11-14T15:22:01;46.60;;;24.37;;
3099;SDS011;1560;52.746;13.474;2022-11-14T15:24:31;44.73;;;22.85;;
3099;SDS011;1560;52.746;13.474;2022-11-14T15:27:02;36.30;;;22.45;;
3099;SDS011;1560;52.746;13.474;2022-11-14T15:29:32;40.75;;;23.60;;
3099;SDS011;1560;52.746;13.474;2022-11-14T15:34:37;41.25;;;22.30;;
3099;SDS011;1560;52.746;13.474;2022-11-14T15:37:14;42.38;;;22.90;;
3099;SDS011;1560;52.746;13.474;2022-11-14T15:39:46;39.67;;;22.87;;
3099;SDS011;1560;52.746;13.474;2022-11-14T15:44:53;43.55;;;24.15;;
3099;SDS011;1560;52.746;13.474;2022-11-14T15:47:22;44.63;;;23.95;;
3099;SDS011;1560;52.746;13.474;2022-11-14T15:49:58;44.20;;;25.05;;
3099;SDS011;1560;52.746;13.474;2022-11-14T15:55:11;37.38;;;22.65;;
3099;SDS011;1560;52.746;13.474;2022-11-14T15:57:41;39.45;;;23.05;;
3099;SDS011;1560;52.746;13.474;2022-11-14T16:00:12;38.33;;;23.77;;
3099;SDS011;1560;52.746;13.474;2022-11-14T16:02:51;38.35;;;23.02;;
3099;SDS011;1560;52.746;13.474;2022-11-14T16:07:59;40.85;;;22.40;;
3099;SDS011;1560;52.746;13.474;2022-11-14T16:10:28;38.30;;;23.70;;
3099;SDS011;1560;52.746;13.474;2022-11-14T16:12:57;34.23;;;21.37;;
3099;SDS011;1560;52.746;13.474;2022-11-14T16:15:25;42.33;;;23.73;;
3099;SDS011;1560;52.746;13.474;2022-11-14T16:20:31;41.77;;;21.70;;
3099;SDS011;1560;52.746;13.474;2022-11-14T16:23:01;47.65;;;23.90;;
3099;SDS011;1560;52.746;13.474;2022-11-14T16:25:31;42.48;;;24.20;;
3099;SDS011;1560;52.746;13.474;2022-11-14T16:28:00;44.67;;;24.92;;
3099;SDS011;1560;52.746;13.474;2022-11-14T16:30:29;41.15;;;22.58;;
3099;SDS011;1560;52.746;13.474;2022-11-14T16:32:58;49.48;;;24.92;;
3099;SDS011;1560;52.746;13.474;2022-11-14T16:35:26;42.15;;;23.47;;
3099;SDS011;1560;52.746;13.474;2022-11-14T16:37:55;42.48;;;24.95;;
3099;SDS011;1560;52.746;13.474;2022-11-14T16:40:25;40.70;;;24.52;;
3099;SDS011;1560;52.746;13.474;2022-11-14T16:45:31;40.12;;;23.70;;
3099;SDS011;1560;52.746;13.474;2022-11-14T16:48:00;41.00;;;23.80;;
3099;SDS011;1560;52.746;13.474;2022-11-14T16:50:29;41.92;;;23.40;;
3099;SDS011;1560;52.746;13.474;2022-11-14T16:55:35;47.30;;;26.42;;
3099;SDS011;1560;52.746;13.474;2022-11-14T16:58:04;40.88;;;23.30;;
3099;SDS011;1560;52.746;13.474;2022-11-14T17:00:33;37.23;;;22.82;;
3099;SDS011;1560;52.746;13.474;2022-11-14T17:03:02;43.90;;;24.60;;
3099;SDS011;1560;52.746;13.474;2022-11-14T17:05:30;38.30;;;24.72;;
3099;SDS011;1560;52.746;13.474;2022-11-14T17:10:39;38.80;;;22.17;;
3099;SDS011;1560;52.746;13.474;2022-11-14T17:13:08;46.85;;;24.05;;
3099;SDS011;1560;52.746;13.474;2022-11-14T17:15:37;38.15;;;23.15;;
3099;SDS011;1560;52.746;13.474;2022-11-14T17:18:06;38.00;;;23.90;;
3099;SDS011;1560;52.746;13.474;2022-11-14T17:23:12;46.90;;;24.10;;
3099;SDS011;1560;52.746;13.474;2022-11-14T17:28:18;39.90;;;23.38;;
3099;SDS011;1560;52.746;13.474;2022-11-14T17:30:47;44.15;;;23.50;;
3099;SDS011;1560;52.746;13.474;2022-11-14T17:33:24;51.45;;;28.90;;
3099;SDS011;1560;52.746;13.474;2022-11-14T17:35:53;48.42;;;26.68;;
3099;SDS011;1560;52.746;13.474;2022-11-14T17:40:58;42.95;;;22.45;;